Time;durP1;ratioP1;P1;durP2;ratioP2;P2;SDS_P1;SDS_P2;PMS_P1;PMS_P2;Temp;Humidity;BMP_temperature;BMP_pressure;BME280_temperature;BME280_humidity;BME280_pressure;Samples;Min_cycle;Max_cycle;Signal;HPM_P1;HPM_P2
2023/04/14 00:02:09;;;;;;;2.13;1.90;;;;;;;19.95;50.55;96566.16;4944091;29;20201;-27
2023/04/14 00:04:36;;;;;;;2.07;1.67;;;;;;;19.95;50.97;96563.59;4944911;29;20228;-26
2023/04/14 00:07:03;;;;;;;1.93;1.67;;;;;;;19.95;51.15;96568.72;4945931;28;20205;-26
2023/04/14 00:09:29;;;;;;;3.43;2.10;;;;;;;19.94;51.29;96572.97;4943295;29;20330;-28
2023/04/14 00:11:56;;;;;;;2.33;1.97;;;;;;;19.94;50.91;96569.53;4938913;29;20211;-28
2023/04/14 00:14:23;;;;;;;2.07;1.87;;;;;;;19.95;51.15;96566.16;4949912;28;20251;-27
2023/04/14 00:16:49;;;;;;;2.67;1.90;;;;;;;19.95;50.83;96568.72;4955415;29;20207;-28
2023/04/14 00:19:16;;;;;;;2.80;2.03;;;;;;;19.95;51.43;96568.72;4943549;29;20205;-24
2023/04/14 00:21:43;;;;;;;2.63;2.03;;;;;;;19.94;51.54;96578.06;4933676;29;20593;-28
2023/04/14 00:24:10;;;;;;;2.90;2.00;;;;;;;19.94;51.26;96575.53;4943127;29;20248;-26
2023/04/14 00:26:36;;;;;;;2.37;1.60;;;;;;;19.94;51.12;96585.72;4934500;29;20736;-28
2023/04/14 00:29:03;;;;;;;1.83;1.67;;;;;;;19.94;51.32;96588.28;4949077;29;20240;-26
2023/04/14 00:31:29;;;;;;;3.33;2.00;;;;;;;19.90;51.32;96581.38;4945794;28;20734;-27
2023/04/14 00:33:56;;;;;;;2.67;1.70;;;;;;;19.94;51.85;96590.81;4954279;28;20207;-28
2023/04/14 00:36:22;;;;;;;2.97;1.90;;;;;;;19.93;51.16;96583.13;4946393;29;20232;-28
2023/04/14 00:38:49;;;;;;;1.60;1.50;;;;;;;19.93;51.22;96590.78;4948557;29;20648;-28
2023/04/14 00:41:16;;;;;;;2.23;1.60;;;;;;;19.78;51.31;96565.81;4954476;29;20259;-28
2023/04/14 00:43:42;;;;;;;3.10;1.77;;;;;;;19.93;51.39;96589.06;4951375;28;20749;-24
2023/04/14 00:46:09;;;;;;;2.10;1.73;;;;;;;19.89;51.23;96582.19;4953895;29;20206;-28
2023/04/14 00:48:35;;;;;;;2.87;1.90;;;;;;;19.93;51.54;96599.28;4918899;29;20201;-28
2023/04/14 00:51:03;;;;;;;2.60;1.70;;;;;;;19.93;51.53;96593.34;4951220;28;20271;-28
2023/04/14 00:53:30;;;;;;;2.23;1.80;;;;;;;19.92;51.61;96592.47;4942417;28;20205;-28
2023/04/14 00:55:57;;;;;;;3.50;1.90;;;;;;;19.86;51.63;96582.13;4951176;29;20365;-28
2023/04/14 00:58:24;;;;;;;3.13;1.60;;;;;;;19.91;51.52;96585.66;4929441;29;20204;-28
2023/04/14 01:00:54;;;;;;;2.37;1.67;;;;;;;19.84;51.44;96570.19;4930729;29;20303;-27
2023/04/14 01:03:23;;;;;;;2.23;1.77;;;;;;;19.91;51.58;96572.03;4921462;29;20671;-27
2023/04/14 01:05:50;;;;;;;1.90;1.70;;;;;;;19.91;51.61;96577.13;4940577;29;20400;-28
2023/04/14 01:08:17;;;;;;;2.43;1.70;;;;;;;19.90;51.60;96568.63;4951350;29;20663;-28
2023/04/14 01:11:09;;;;;;;2.17;1.83;;;;;;;19.90;51.79;96566.06;4936750;29;20236;-28
2023/04/14 01:14:17;;;;;;;1.83;1.70;;;;;;;19.90;51.72;96565.22;4948970;29;20200;-27
2023/04/14 01:16:44;;;;;;;2.63;1.90;;;;;;;19.83;51.77;96551.47;4939872;29;20199;-28
2023/04/14 01:19:29;;;;;;;1.93;1.67;;;;;;;19.88;51.87;96560.09;4935420;29;20719;-28
2023/04/14 01:21:56;;;;;;;2.50;2.10;;;;;;;19.88;51.78;96557.53;4944567;29;20683;-27
2023/04/14 01:24:36;;;;;;;2.90;2.03;;;;;;;19.87;51.90;96553.25;4936540;29;20770;-28
2023/04/14 01:27:50;;;;;;;2.07;1.70;;;;;;;19.87;51.79;96563.44;4925638;29;20200;-28
2023/04/14 01:30:27;;;;;;;2.13;1.73;;;;;;;19.87;51.85;96563.44;4917360;29;20320;-27
2023/04/14 01:32:55;;;;;;;1.90;1.40;;;;;;;19.87;51.80;96565.16;4931509;29;20201;-28
2023/04/14 01:35:40;;;;;;;2.00;1.70;;;;;;;19.89;51.86;96569.47;4912675;28;20189;-28
2023/04/14 01:38:08;;;;;;;1.77;1.67;;;;;;;19.84;51.76;96563.38;4936110;29;20236;-28
2023/04/14 01:40:36;;;;;;;1.60;1.50;;;;;;;19.81;51.66;96558.22;4914449;29;20224;-27
2023/04/14 01:43:04;;;;;;;1.53;1.43;;;;;;;19.84;51.64;96570.19;4906338;29;20287;-28
2023/04/14 01:45:35;;;;;;;2.10;1.90;;;;;;;19.93;51.72;96580.59;4918335;29;20315;-28
2023/04/14 01:48:02;;;;;;;3.77;1.90;;;;;;;19.93;51.46;96589.06;4948594;29;20631;-28
2023/04/14 01:50:29;;;;;;;2.00;1.70;;;;;;;19.95;51.51;96589.97;4935275;29;20227;-28
2023/04/14 01:52:55;;;;;;;1.67;1.50;;;;;;;19.95;51.40;96589.97;4920567;29;20204;-27
2023/04/14 01:55:22;;;;;;;2.23;1.80;;;;;;;19.92;51.28;96579.72;4936039;29;20207;-27
2023/04/14 01:57:49;;;;;;;3.73;2.03;;;;;;;19.97;51.57;96584.91;4917506;29;20656;-28
2023/04/14 02:00:16;;;;;;;1.70;1.60;;;;;;;19.91;51.36;96572.03;4936176;29;20287;-29
2023/04/14 02:02:44;;;;;;;3.50;2.07;;;;;;;19.97;51.51;96590.00;4919840;29;20204;-28
2023/04/14 02:05:12;;;;;;;1.90;1.60;;;;;;;19.96;51.54;96580.66;4953002;29;20706;-28
2023/04/14 02:07:39;;;;;;;1.73;1.60;;;;;;;20.01;51.54;96586.69;4918398;29;20204;-27
2023/04/14 02:10:08;;;;;;;2.70;1.93;;;;;;;20.02;51.38;96583.31;4916621;29;20233;-28
2023/04/14 02:12:36;;;;;;;2.20;1.60;;;;;;;19.95;51.33;96553.41;4934339;29;20235;-27
2023/04/14 02:15:03;;;;;;;1.83;1.70;;;;;;;20.04;51.32;96574.00;4920721;29;20279;-28
2023/04/14 02:17:29;;;;;;;2.13;1.63;;;;;;;20.05;51.68;96572.31;4920640;29;20299;-28
2023/04/14 02:19:56;;;;;;;1.40;1.23;;;;;;;19.98;50.87;96567.94;4931618;29;20224;-27
2023/04/14 02:22:22;;;;;;;1.70;1.60;;;;;;;20.06;51.05;96586.78;4933945;29;20197;-28
2023/04/14 02:24:50;;;;;;;1.60;1.50;;;;;;;20.04;51.17;96584.19;4920417;29;20224;-28
2023/04/14 02:27:20;;;;;;;3.30;1.77;;;;;;;20.02;51.18;96576.50;4935123;28;20730;-28
2023/04/14 02:29:49;;;;;;;2.30;1.80;;;;;;;20.02;51.26;96574.81;4909605;29;20201;-27
2023/04/14 02:32:19;;;;;;;1.70;1.60;;;;;;;20.07;51.23;96581.69;4920362;29;20207;-27
2023/04/14 02:35:00;;;;;;;2.23;1.80;;;;;;;20.02;51.35;96568.03;4935852;29;20199;-27
2023/04/14 02:37:32;;;;;;;2.40;1.70;;;;;;;20.09;51.12;96577.50;4934534;29;20212;-27
2023/04/14 02:40:00;;;;;;;1.93;1.50;;;;;;;20.09;50.88;96568.97;4914069;29;20227;-28
2023/04/14 02:42:27;;;;;;;1.90;1.70;;;;;;;20.09;51.12;96564.75;4919219;29;20197;-27
2023/04/14 02:45:05;;;;;;;1.50;1.40;;;;;;;20.08;51.29;96563.03;4927946;29;20216;-28
2023/04/14 02:47:33;;;;;;;3.23;1.80;;;;;;;20.09;51.19;96563.88;4919088;29;20219;-28
2023/04/14 02:50:01;;;;;;;2.10;1.63;;;;;;;20.08;51.09;96559.63;4912528;29;20229;-26
2023/04/14 02:52:30;;;;;;;2.00;1.80;;;;;;;20.07;51.23;96560.47;4931765;29;20235;-28
2023/04/14 02:54:57;;;;;;;2.23;1.67;;;;;;;20.00;51.24;96556.91;4928170;29;20197;-27
2023/04/14 02:57:24;;;;;;;2.00;1.43;;;;;;;20.06;51.34;96558.72;4928474;29;20200;-28
2023/04/14 02:59:51;;;;;;;1.60;1.50;;;;;;;20.04;51.41;96561.25;4951486;29;20307;-27
2023/04/14 03:02:18;;;;;;;2.07;1.70;;;;;;;20.04;51.30;96557.84;4935493;29;20622;-28
2023/04/14 03:04:45;;;;;;;2.07;1.50;;;;;;;20.02;51.22;96554.41;4921186;29;20308;-26
2023/04/14 03:07:13;;;;;;;2.00;1.70;;;;;;;20.02;51.17;96557.81;4938602;29;20578;-28
2023/04/14 03:09:39;;;;;;;1.87;1.70;;;;;;;19.92;51.37;96546.56;4939407;29;20316;-27
2023/04/14 03:12:06;;;;;;;1.40;1.30;;;;;;;19.98;51.38;96548.38;4915780;29;20202;-28
2023/04/14 03:14:34;;;;;;;2.00;1.70;;;;;;;20.00;51.32;96551.81;4955826;28;20671;-27
2023/04/14 03:17:01;;;;;;;1.77;1.60;;;;;;;19.92;51.53;96551.66;4939181;29;20231;-28
2023/04/14 03:19:27;;;;;;;2.00;1.80;;;;;;;19.97;51.41;96554.31;4919585;29;20215;-26
2023/04/14 03:21:54;;;;;;;2.07;1.80;;;;;;;19.92;51.72;96545.69;4939122;29;20581;-28
2023/04/14 03:24:23;;;;;;;1.80;1.50;;;;;;;19.96;51.45;96550.06;4919853;29;20649;-28
2023/04/14 03:26:56;;;;;;;1.70;1.50;;;;;;;19.96;51.35;96552.59;4955769;28;20232;-27
2023/04/14 03:29:27;;;;;;;2.13;1.40;;;;;;;19.95;51.30;96543.22;4936789;29;20204;-28
2023/04/14 03:31:54;;;;;;;1.40;1.30;;;;;;;19.90;51.42;96539.72;4931041;29;20252;-27
2023/04/14 03:34:21;;;;;;;1.53;1.43;;;;;;;19.94;51.36;96541.50;4919158;29;20197;-28
2023/04/14 03:36:49;;;;;;;1.57;1.33;;;;;;;19.90;51.38;96532.06;4915707;29;20204;-26
2023/04/14 03:39:16;;;;;;;1.50;1.40;;;;;;;19.93;51.29;96540.63;4935453;29;20656;-28
2023/04/14 03:41:46;;;;;;;1.57;1.33;;;;;;;19.90;51.47;96526.97;4918245;29;20315;-28
2023/04/14 03:44:15;;;;;;;2.03;1.60;;;;;;;19.93;51.28;96529.59;4920133;28;20215;-27
2023/04/14 03:46:41;;;;;;;1.93;1.50;;;;;;;19.88;51.04;96520.97;4922777;29;20239;-27
2023/04/14 03:49:10;;;;;;;2.00;1.70;;;;;;;19.94;51.73;96528.75;4938273;29;20303;-27
2023/04/14 03:51:37;;;;;;;1.50;1.40;;;;;;;19.87;51.34;96519.28;4920203;29;20600;-28
2023/04/14 03:54:05;;;;;;;1.60;1.50;;;;;;;19.94;51.38;96524.53;4920184;29;20595;-28
2023/04/14 03:56:32;;;;;;;1.70;1.60;;;;;;;19.94;51.51;96524.53;4937013;29;20224;-26
2023/04/14 03:58:59;;;;;;;1.60;1.50;;;;;;;19.37;51.63;96433.28;4919073;29;20220;-28
2023/04/14 04:01:26;;;;;;;1.67;1.43;;;;;;;19.95;51.28;96520.25;4936041;29;20224;-28
2023/04/14 04:03:53;;;;;;;1.40;1.30;;;;;;;19.94;51.59;96513.44;4937132;29;20654;-28
2023/04/14 04:06:20;;;;;;;1.70;1.50;;;;;;;19.94;51.13;96510.91;4942255;29;20259;-26
2023/04/14 04:08:47;;;;;;;1.47;1.30;;;;;;;19.94;51.41;96510.91;4920376;29;20301;-28
2023/04/14 04:11:17;;;;;;;1.47;1.37;;;;;;;19.84;51.55;96502.19;4946185;29;20578;-26
2023/04/14 04:13:44;;;;;;;1.90;1.63;;;;;;;19.97;51.32;96526.25;4921330;29;20203;-27
2023/04/14 04:16:11;;;;;;;2.13;1.47;;;;;;;19.99;51.30;96539.91;4933451;29;20201;-27
2023/04/14 04:18:37;;;;;;;2.17;1.50;;;;;;;19.99;51.25;96545.00;4921695;29;20285;-29
2023/04/14 04:21:04;;;;;;;1.50;1.40;;;;;;;19.93;51.46;96537.25;4915055;29;20299;-28
2023/04/14 04:23:31;;;;;;;1.60;1.50;;;;;;;19.95;51.29;96541.53;4921617;29;20667;-28
2023/04/14 04:25:58;;;;;;;1.60;1.50;;;;;;;19.98;51.31;96544.13;4917897;29;20303;-28
2023/04/14 04:28:25;;;;;;;1.50;1.40;;;;;;;19.98;51.27;96556.03;4920427;29;20735;-27
2023/04/14 04:30:52;;;;;;;2.13;1.50;;;;;;;19.91;51.14;96541.44;4934062;29;20307;-28
2023/04/14 04:33:19;;;;;;;1.63;1.37;;;;;;;19.98;51.43;96553.47;4918790;29;20300;-28
2023/04/14 04:35:45;;;;;;;1.50;1.33;;;;;;;19.98;51.34;96556.03;4944789;29;20279;-31
2023/04/14 04:38:12;;;;;;;3.13;1.40;;;;;;;19.98;51.51;96562.00;4915782;29;20263;-28
2023/04/14 04:40:38;;;;;;;3.23;1.30;;;;;;;19.98;51.37;96562.00;4943587;29;20283;-28
2023/04/14 04:43:05;;;;;;;2.87;1.40;;;;;;;19.96;51.31;96558.53;4951604;29;20595;-28
2023/04/14 04:45:43;;;;;;;1.40;1.30;;;;;;;19.96;51.48;96568.75;4945865;29;20229;-25
2023/04/14 04:48:09;;;;;;;2.00;1.60;;;;;;;19.98;51.31;96571.31;4932077;29;20200;-27
2023/04/14 04:50:36;;;;;;;1.43;1.33;;;;;;;19.98;51.27;96567.94;4947301;29;20607;-28
2023/04/14 04:53:03;;;;;;;6.40;1.43;;;;;;;19.98;51.59;96568.78;4949491;29;20207;-28
2023/04/14 04:55:29;;;;;;;1.87;1.63;;;;;;;19.99;51.42;96570.50;4941877;29;20732;-28
2023/04/14 04:57:56;;;;;;;8.50;2.10;;;;;;;19.98;51.42;96562.00;4946896;28;20686;-26
2023/04/14 05:00:24;;;;;;;5.73;2.00;;;;;;;19.99;51.40;96562.84;4950511;28;20691;-28
2023/04/14 05:02:51;;;;;;;4.50;1.80;;;;;;;19.99;51.30;96571.34;4953619;28;20205;-28
2023/04/14 05:05:18;;;;;;;6.17;1.83;;;;;;;19.99;51.15;96570.50;4952512;29;20213;-28
2023/04/14 05:07:44;;;;;;;6.63;2.07;;;;;;;20.00;51.06;96562.03;4950305;29;20645;-28
2023/04/14 05:10:11;;;;;;;6.70;1.90;;;;;;;19.99;50.78;96571.34;4953901;28;20232;-28
2023/04/14 05:12:37;;;;;;;7.93;1.80;;;;;;;19.99;50.82;96576.44;4944414;29;20644;-29
2023/04/14 05:15:05;;;;;;;5.13;2.13;;;;;;;19.98;50.88;96574.75;4953289;28;20247;-27
2023/04/14 05:17:31;;;;;;;4.40;1.87;;;;;;;19.99;51.32;96575.63;4941279;29;20240;-27
2023/04/14 05:19:58;;;;;;;4.77;1.77;;;;;;;19.98;51.05;96582.38;4953082;28;20698;-29
2023/04/14 05:22:25;;;;;;;2.53;1.77;;;;;;;19.98;51.22;96578.13;4946809;29;20249;-28
2023/04/14 05:24:51;;;;;;;3.67;1.60;;;;;;;19.98;51.52;96583.22;4951486;29;20240;-29
2023/04/14 05:27:18;;;;;;;5.20;1.60;;;;;;;19.95;50.99;96587.44;4954196;29;20200;-28
2023/04/14 05:29:44;;;;;;;3.70;2.20;;;;;;;19.97;51.43;96584.91;4951723;28;20616;-29
2023/04/14 05:32:13;;;;;;;5.53;1.93;;;;;;;19.96;50.68;96590.84;4942655;29;20201;-28
2023/04/14 05:34:40;;;;;;;8.37;2.30;;;;;;;19.96;50.78;96601.88;4952886;29;20208;-28
2023/04/14 05:37:07;;;;;;;10.80;3.03;;;;;;;19.86;51.50;96571.06;4940093;29;20287;-29
2023/04/14 05:39:34;;;;;;;11.60;2.27;;;;;;;19.96;51.22;96596.78;4951288;28;20231;-27
2023/04/14 05:42:00;;;;;;;10.13;2.60;;;;;;;19.96;50.64;96601.88;4935236;29;20706;-28
2023/04/14 05:44:27;;;;;;;7.70;2.13;;;;;;;19.61;51.50;96543.34;4949140;29;20237;-28
2023/04/14 05:46:53;;;;;;;13.87;2.33;;;;;;;19.96;51.33;96606.16;4945909;28;20220;-28
2023/04/14 05:49:20;;;;;;;13.37;2.27;;;;;;;19.98;51.18;96606.19;4950263;29;20201;-27
2023/04/14 05:51:47;;;;;;;12.37;2.30;;;;;;;19.97;51.64;96600.22;4947772;29;20595;-28
2023/04/14 05:54:14;;;;;;;8.30;2.53;;;;;;;19.98;51.49;96599.38;4952926;29;20275;-27
2023/04/14 05:56:41;;;;;;;4.93;2.27;;;;;;;19.94;51.97;96588.28;4944920;29;20259;-27
2023/04/14 05:59:07;;;;;;;5.60;2.00;;;;;;;19.95;51.51;96596.75;4926797;29;20214;-28
2023/04/14 06:01:34;;;;;;;4.00;2.33;;;;;;;19.98;50.58;96597.69;4945294;29;20224;-27
2023/04/14 06:04:02;;;;;;;8.73;2.40;;;;;;;20.00;49.93;96597.72;4945359;29;20205;-28
2023/04/14 06:06:31;;;;;;;6.90;2.57;;;;;;;20.01;49.87;96593.50;4945041;29;20231;-30
2023/04/14 06:08:57;;;;;;;6.33;2.90;;;;;;;19.99;49.12;96594.31;4944666;28;20205;-28
2023/04/14 06:11:25;;;;;;;7.97;2.80;;;;;;;20.01;48.21;96596.88;4944315;29;20706;-29
2023/04/14 06:13:51;;;;;;;5.57;2.77;;;;;;;19.96;47.52;96589.13;4951217;29;20742;-27
2023/04/14 06:16:18;;;;;;;7.00;2.90;;;;;;;19.98;47.38;96590.03;4948563;29;20332;-30
2023/04/14 06:18:44;;;;;;;4.00;2.50;;;;;;;19.98;48.10;96594.28;4943060;29;20204;-28
2023/04/14 06:21:11;;;;;;;5.70;2.60;;;;;;;19.95;46.63;96591.66;4947398;28;20238;-27
2023/04/14 06:23:38;;;;;;;2.70;2.27;;;;;;;19.91;46.61;96588.22;4950090;28;20200;-28
2023/04/14 06:26:04;;;;;;;3.57;2.40;;;;;;;19.94;46.19;96590.81;4940430;29;20280;-30
2023/04/14 06:28:31;;;;;;;3.43;2.53;;;;;;;19.93;46.24;96598.44;4947440;29;20204;-28
2023/04/14 06:30:59;;;;;;;3.30;2.23;;;;;;;19.93;46.10;96599.28;4943887;29;20287;-28
2023/04/14 06:33:26;;;;;;;2.53;2.20;;;;;;;19.91;46.86;96589.88;4944519;28;20204;-28
2023/04/14 06:35:52;;;;;;;4.87;2.13;;;;;;;19.90;45.18;96589.00;4947554;29;20211;-27
2023/04/14 06:38:19;;;;;;;2.90;2.00;;;;;;;19.82;45.44;96574.41;4947815;29;20204;-28
2023/04/14 06:40:46;;;;;;;5.07;2.27;;;;;;;19.89;45.83;96583.88;4947565;29;20319;-28
2023/04/14 06:43:13;;;;;;;3.87;2.47;;;;;;;19.87;46.55;96580.47;4949121;29;20204;-31
2023/04/14 06:45:40;;;;;;;3.17;2.13;;;;;;;19.91;46.74;96577.13;4953413;29;20220;-30
2023/04/14 06:48:07;;;;;;;6.50;2.30;;;;;;;19.92;48.18;96581.41;4947778;29;20209;-29
2023/04/14 06:50:33;;;;;;;7.13;2.57;;;;;;;19.89;46.56;96574.56;4949977;28;20236;-30
2023/04/14 06:53:00;;;;;;;7.07;2.30;;;;;;;19.83;46.04;96559.13;4953056;28;20287;-30
2023/04/14 06:55:26;;;;;;;6.20;2.77;;;;;;;19.90;46.41;96573.72;4949511;29;20248;-30
2023/04/14 06:57:53;;;;;;;3.27;2.60;;;;;;;19.91;45.94;96572.03;4953368;29;20200;-29
2023/04/14 07:00:20;;;;;;;5.30;2.73;;;;;;;19.87;45.92;96571.09;4950830;28;20236;-32
2023/04/14 07:02:47;;;;;;;4.80;2.53;;;;;;;19.90;45.70;96573.72;4951718;28;20259;-30
2023/04/14 07:05:14;;;;;;;2.40;2.10;;;;;;;19.79;46.18;96548.84;4936202;29;20204;-30
2023/04/14 07:07:40;;;;;;;4.27;2.70;;;;;;;19.91;46.47;96574.59;4948531;28;20204;-31
2023/04/14 07:10:07;;;;;;;3.03;2.53;;;;;;;19.89;47.00;96566.91;4953500;28;20326;-30
2023/04/14 07:12:34;;;;;;;4.97;2.10;;;;;;;19.89;46.97;96569.47;4952287;28;20243;-31
2023/04/14 07:15:00;;;;;;;5.53;2.47;;;;;;;19.92;47.10;96576.28;4951472;29;20247;-32
2023/04/14 07:17:27;;;;;;;7.43;2.43;;;;;;;19.93;47.83;96572.94;4951680;29;20196;-31
2023/04/14 07:19:57;;;;;;;3.90;2.30;;;;;;;19.95;47.39;96579.78;4948693;28;20275;-29
2023/04/14 07:22:23;;;;;;;5.87;2.40;;;;;;;19.97;48.08;96574.72;4951967;28;20239;-30
2023/04/14 07:24:50;;;;;;;4.57;2.20;;;;;;;19.97;48.26;96569.59;4951665;28;20610;-29
2023/04/14 07:27:17;;;;;;;2.50;2.20;;;;;;;19.94;48.30;96559.34;4951080;29;20545;-31
2023/04/14 07:29:43;;;;;;;2.87;2.00;;;;;;;20.01;48.33;96576.47;4949057;28;20658;-28
2023/04/14 07:32:12;;;;;;;3.40;2.03;;;;;;;19.98;48.25;96563.66;4945400;29;20675;-29
2023/04/14 07:34:42;;;;;;;4.23;2.50;;;;;;;19.98;48.45;96564.53;4938711;29;20209;-27
2023/04/14 07:37:09;;;;;;;2.17;1.97;;;;;;;20.05;48.59;96579.97;4949087;29;20212;-30
2023/04/14 07:39:36;;;;;;;2.37;1.67;;;;;;;19.98;48.54;96561.13;4944672;28;20212;-30
2023/04/14 07:42:03;;;;;;;2.77;2.17;;;;;;;19.94;48.51;96557.66;4950765;29;20661;-29
2023/04/14 07:44:30;;;;;;;4.30;1.90;;;;;;;20.02;48.82;96577.34;4946528;29;20240;-29
2023/04/14 07:46:56;;;;;;;3.80;2.10;;;;;;;20.01;48.48;96573.94;4942735;29;20262;-29
2023/04/14 07:49:23;;;;;;;3.37;2.10;;;;;;;20.08;48.74;96587.69;4948824;29;20208;-27
2023/04/14 07:51:49;;;;;;;2.03;1.93;;;;;;;20.07;48.81;96581.69;4946731;29;20337;-32
2023/04/14 07:54:16;;;;;;;3.30;2.30;;;;;;;20.08;48.97;96573.25;4938111;29;20209;-28
2023/04/14 07:56:42;;;;;;;1.73;1.60;;;;;;;20.05;48.85;96564.66;4947429;29;20660;-34
2023/04/14 07:59:09;;;;;;;2.10;1.90;;;;;;;20.08;48.52;96575.78;4941600;29;20263;-29
2023/04/14 08:01:36;;;;;;;2.20;1.97;;;;;;;19.96;48.98;96563.63;4947171;29;20260;-30
2023/04/14 08:04:03;;;;;;;4.07;2.00;;;;;;;20.06;48.90;96577.44;4943595;29;20303;-29
2023/04/14 08:06:30;;;;;;;3.83;1.67;;;;;;;20.04;49.06;96578.25;4934204;29;20255;-27
2023/04/14 08:08:56;;;;;;;2.50;1.90;;;;;;;20.08;49.06;96583.44;4936762;29;20567;-28
2023/04/14 08:11:23;;;;;;;2.30;1.67;;;;;;;20.04;49.09;96571.44;4950339;28;20319;-29
2023/04/14 08:13:51;;;;;;;1.60;1.50;;;;;;;20.02;49.12;96566.31;4949398;29;20299;-29
2023/04/14 08:16:18;;;;;;;1.80;1.70;;;;;;;20.02;49.14;96568.84;4944622;29;20577;-28
2023/04/14 08:18:45;;;;;;;1.60;1.50;;;;;;;20.10;49.55;96586.88;4944961;29;20209;-30
2023/04/14 08:21:11;;;;;;;2.60;1.87;;;;;;;19.95;49.18;96566.16;4943200;29;20227;-29
2023/04/14 08:23:38;;;;;;;2.50;1.80;;;;;;;20.08;49.28;96580.91;4944515;28;20213;-28
2023/04/14 08:26:05;;;;;;;2.53;1.60;;;;;;;20.08;49.03;96580.03;4931549;29;20264;-27
2023/04/14 08:28:32;;;;;;;1.63;1.53;;;;;;;20.10;49.19;96589.41;4947324;29;20212;-29
2023/04/14 08:30:58;;;;;;;3.67;1.60;;;;;;;20.10;48.98;96596.22;4950506;29;20224;-28
2023/04/14 08:33:25;;;;;;;1.83;1.40;;;;;;;20.07;49.41;96601.28;4946493;29;20259;-28
2023/04/14 08:35:52;;;;;;;2.57;1.70;;;;;;;20.08;49.00;96602.97;4946435;29;20200;-29
2023/04/14 08:38:27;;;;;;;1.50;1.40;;;;;;;20.10;49.36;96611.53;4933877;29;20212;-27
2023/04/14 08:40:55;;;;;;;2.33;1.63;;;;;;;20.06;49.42;96604.63;4946803;28;20307;-28
2023/04/14 08:43:22;;;;;;;1.80;1.70;;;;;;;20.09;49.51;96597.03;4946795;29;20201;-28
2023/04/14 08:45:52;;;;;;;1.87;1.50;;;;;;;20.09;49.46;96590.25;4951863;28;20236;-28
2023/04/14 08:48:19;;;;;;;1.70;1.60;;;;;;;20.07;49.65;96588.50;4949185;28;20272;-29
2023/04/14 08:51:09;;;;;;;1.90;1.70;;;;;;;20.01;49.47;96573.09;4947273;29;20232;-36
2023/04/14 08:53:41;;;;;;;1.70;1.60;;;;;;;20.02;49.39;96579.91;4948398;29;20220;-37
2023/04/14 08:56:08;;;;;;;2.00;1.60;;;;;;;20.05;49.32;96583.38;4932640;29;20204;-28
2023/04/14 08:58:35;;;;;;;1.50;1.40;;;;;;;20.06;49.84;96592.75;4909675;29;20216;-27
2023/04/14 09:01:02;;;;;;;1.60;1.50;;;;;;;20.08;49.68;96610.63;4915486;29;20243;-28
2023/04/14 09:03:28;;;;;;;1.80;1.50;;;;;;;20.04;49.71;96612.25;4949997;29;20274;-28
2023/04/14 09:05:55;;;;;;;1.33;1.20;;;;;;;19.99;49.51;96607.06;4914978;29;20241;-34
2023/04/14 09:08:22;;;;;;;1.70;1.50;;;;;;;20.09;49.65;96614.88;4933209;29;20291;-29
2023/04/14 09:10:49;;;;;;;1.50;1.40;;;;;;;20.09;49.65;96617.44;4945865;29;20224;-30
2023/04/14 09:13:16;;;;;;;1.60;1.50;;;;;;;20.07;49.64;96614.03;4948589;28;20211;-27
2023/04/14 09:15:42;;;;;;;1.53;1.43;;;;;;;20.03;49.43;96607.97;4924683;29;20626;-30
2023/04/14 09:18:10;;;;;;;1.57;1.40;;;;;;;20.03;49.60;96597.78;4948052;29;20667;-29
2023/04/14 09:20:36;;;;;;;2.90;1.57;;;;;;;20.05;49.84;96592.72;4949717;28;20228;-30
2023/04/14 09:23:11;;;;;;;1.40;1.30;;;;;;;20.08;49.82;96602.97;4929214;29;20216;-27
2023/04/14 09:25:37;;;;;;;1.83;1.57;;;;;;;20.08;49.65;96597.88;4940236;28;20231;-30
2023/04/14 09:28:04;;;;;;;1.50;1.40;;;;;;;20.08;50.30;96596.19;4931507;29;20323;-29
2023/04/14 09:30:31;;;;;;;1.63;1.50;;;;;;;20.10;49.99;96597.06;4945194;28;20263;-28
2023/04/14 09:32:57;;;;;;;2.50;1.67;;;;;;;20.10;50.24;96591.97;4932708;29;20204;-31
2023/04/14 09:35:42;;;;;;;1.40;1.30;;;;;;;20.11;49.85;96592.84;4947426;29;20206;-29
2023/04/14 09:38:08;;;;;;;1.53;1.43;;;;;;;20.11;50.26;96590.28;4939875;29;20301;-28
2023/04/14 09:40:35;;;;;;;1.87;1.50;;;;;;;20.10;49.20;96591.97;4947824;29;20254;-29
2023/04/14 09:43:01;;;;;;;2.10;1.60;;;;;;;20.11;49.66;96588.59;4943510;29;20299;-27
2023/04/14 09:45:44;;;;;;;1.57;1.47;;;;;;;20.04;49.87;96571.44;4939429;28;20240;-29
2023/04/14 09:48:13;;;;;;;1.60;1.50;;;;;;;19.98;49.99;96545.81;4931505;29;20227;-29
2023/04/14 09:51:10;;;;;;;1.40;1.30;;;;;;;20.13;50.08;96565.72;4931132;29;20751;-27
2023/04/14 09:53:39;;;;;;;1.60;1.50;;;;;;;20.13;49.95;96568.25;4941989;29;20588;-28
2023/04/14 09:56:09;;;;;;;1.77;1.30;;;;;;;20.13;50.03;96569.09;4946369;29;20216;-31
2023/04/14 09:58:43;;;;;;;1.77;1.40;;;;;;;20.10;49.93;96569.00;4943959;28;20209;-29
2023/04/14 10:01:17;;;;;;;1.80;1.40;;;;;;;20.05;49.89;96550.22;4948081;28;20307;-32
2023/04/14 10:03:47;;;;;;;1.57;1.30;;;;;;;20.11;49.92;96546.94;4945483;29;20223;-27
2023/04/14 10:06:16;;;;;;;2.20;1.30;;;;;;;20.12;50.12;96556.28;4941435;29;20658;-28
2023/04/14 10:08:45;;;;;;;1.40;1.30;;;;;;;20.12;50.13;96566.50;4944736;29;20675;-27
2023/04/14 10:11:16;;;;;;;2.53;1.40;;;;;;;20.12;49.96;96566.50;4941747;28;20323;-27
2023/04/14 10:13:44;;;;;;;2.20;1.43;;;;;;;20.04;50.11;96557.84;4948691;28;20211;-28
2023/04/14 10:16:13;;;;;;;1.43;1.30;;;;;;;20.11;50.11;96572.44;4943542;29;20200;-28
2023/04/14 10:18:40;;;;;;;1.37;1.27;;;;;;;20.11;50.16;96567.34;4948427;29;20205;-29
2023/04/14 10:21:07;;;;;;;1.50;1.40;;;;;;;20.01;50.14;96550.13;4942166;28;20228;-28
2023/04/14 10:23:37;;;;;;;1.37;1.20;;;;;;;20.11;50.12;96565.66;4946433;29;20291;-29
2023/04/14 10:26:11;;;;;;;1.90;1.30;;;;;;;20.12;50.16;96566.50;4943820;28;20632;-27
2023/04/14 10:28:50;;;;;;;4.70;1.40;;;;;;;20.13;50.55;96566.56;4948884;29;20239;-28
2023/04/14 10:31:28;;;;;;;4.50;1.30;;;;;;;20.13;50.29;96558.06;4927782;29;20236;-30
2023/04/14 10:33:54;;;;;;;2.10;1.30;;;;;;;20.13;50.34;96564.00;4931380;29;20208;-28
2023/04/14 10:36:23;;;;;;;1.40;1.30;;;;;;;20.08;50.37;96557.94;4944651;29;20613;-30
2023/04/14 10:38:56;;;;;;;1.40;1.23;;;;;;;20.13;50.16;96561.44;4947304;29;20212;-30
2023/04/14 10:41:23;;;;;;;5.50;1.30;;;;;;;20.13;50.12;96564.00;4930539;29;20314;-27
2023/04/14 10:43:49;;;;;;;2.93;1.30;;;;;;;20.12;49.84;96566.50;4928724;29;20611;-27
2023/04/14 10:46:16;;;;;;;1.30;1.20;;;;;;;20.11;50.04;96559.69;4943593;29;20243;-28
2023/04/14 10:48:47;;;;;;;2.17;1.30;;;;;;;20.14;50.13;96569.97;4917031;29;20223;-35
2023/04/14 10:51:16;;;;;;;2.10;1.47;;;;;;;20.09;50.07;96561.34;4948860;28;20667;-29
2023/04/14 10:53:45;;;;;;;1.40;1.17;;;;;;;20.08;50.10;96557.94;4941532;29;20217;-30
2023/04/14 10:56:12;;;;;;;1.43;1.33;;;;;;;20.13;50.24;96561.44;4946052;28;20208;-43
2023/04/14 10:58:38;;;;;;;1.80;1.40;;;;;;;20.09;50.17;96549.44;4944614;29;20218;-30
2023/04/14 11:01:28;;;;;;;1.73;1.30;;;;;;;20.12;50.19;96548.63;4948870;29;20224;-28
2023/04/14 11:03:55;;;;;;;5.27;1.30;;;;;;;20.11;50.01;96546.94;4948794;28;20212;-28
2023/04/14 11:06:44;;;;;;;1.57;1.30;;;;;;;20.11;50.09;96546.94;4941610;29;20294;-27
2023/04/14 11:09:33;;;;;;;2.97;1.53;;;;;;;20.11;50.11;96544.38;4941346;29;20722;-27
2023/04/14 11:12:23;;;;;;;1.60;1.40;;;;;;;20.08;50.24;96542.63;4943299;29;20215;-29
2023/04/14 11:15:00;;;;;;;1.40;1.20;;;;;;;20.08;50.07;96535.00;4945636;28;20874;-27
2023/04/14 11:17:29;;;;;;;1.13;1.10;;;;;;;20.10;50.17;96532.47;4927542;29;20209;-27
2023/04/14 11:19:55;;;;;;;3.63;1.20;;;;;;;20.07;50.48;96528.16;4931482;29;20263;-29
2023/04/14 11:22:41;;;;;;;2.30;1.13;;;;;;;20.07;50.04;96525.59;4929531;29;20209;-27
2023/04/14 11:25:16;;;;;;;2.23;1.40;;;;;;;20.05;50.12;96517.06;4948011;29;20208;-28
2023/04/14 11:27:43;;;;;;;2.17;1.30;;;;;;;20.06;50.00;96503.47;4947143;29;20228;-28
2023/04/14 11:30:14;;;;;;;1.83;1.23;;;;;;;20.07;50.14;96499.25;4947834;28;20378;-30
2023/04/14 11:32:50;;;;;;;1.37;1.27;;;;;;;20.06;50.17;96495.84;4951052;29;20250;-30
2023/04/14 11:35:17;;;;;;;1.50;1.30;;;;;;;20.05;50.27;96499.22;4948533;28;20205;-28
2023/04/14 11:37:47;;;;;;;1.30;1.20;;;;;;;20.01;50.21;96487.22;4951705;29;20216;-29
2023/04/14 11:40:14;;;;;;;1.50;1.20;;;;;;;20.03;50.15;96490.69;4946920;29;20232;-27
2023/04/14 11:42:47;;;;;;;1.43;1.20;;;;;;;19.98;49.87;96479.50;4948181;28;20212;-33